Time;durP1;ratioP1;P1;durP2;ratioP2;P2;SDS_P1;SDS_P2;PMS_P1;PMS_P2;Temp;Humidity;BMP_temperature;BMP_pressure;BME280_temperature;BME280_humidity;BME280_pressure;Samples;Min_cycle;Max_cycle;Signal;HPM_P1;HPM_P2
2021/12/03 00:01:00;;;;;;;6.03;4.15;;;;;;;-140.79;100.00;63287.88;5042979;28;20025;-53
2021/12/03 00:03:26;;;;;;;5.57;3.90;;;;;;;-140.79;100.00;63287.88;5045106;28;20044;-51
2021/12/03 00:05:52;;;;;;;5.70;3.78;;;;;;;-140.79;100.00;63287.88;5043449;28;20083;-50
2021/12/03 00:08:19;;;;;;;5.38;3.83;;;;;;;-140.79;100.00;63287.88;5044555;28;20036;-53
2021/12/03 00:10:49;;;;;;;5.38;3.53;;;;;;;-140.79;100.00;63287.88;5045052;28;20043;-53
2021/12/03 00:13:14;;;;;;;4.90;3.60;;;;;;;-140.79;100.00;63287.88;5044337;28;20035;-53
2021/12/03 00:15:40;;;;;;;5.68;4.13;;;;;;;-140.79;100.00;63287.88;5044660;28;20037;-52
2021/12/03 00:18:05;;;;;;;5.88;3.90;;;;;;;-140.79;100.00;63287.88;5044441;28;20033;-49
2021/12/03 00:20:35;;;;;;;5.22;3.85;;;;;;;-140.79;100.00;63287.88;5044904;28;20028;-53
2021/12/03 00:23:01;;;;;;;6.18;3.97;;;;;;;-140.79;100.00;63287.88;5044043;28;20037;-53
2021/12/03 00:25:26;;;;;;;5.03;3.95;;;;;;;-140.79;100.00;63287.88;5044947;28;20041;-53
2021/12/03 00:27:51;;;;;;;5.55;4.45;;;;;;;-140.79;100.00;63287.88;5044531;28;20454;-52
2021/12/03 00:30:17;;;;;;;5.53;3.50;;;;;;;-140.79;100.00;63287.88;5043852;28;20730;-52
2021/12/03 00:32:43;;;;;;;5.05;3.75;;;;;;;-140.79;100.00;63287.88;5043502;28;20079;-54
2021/12/03 00:35:09;;;;;;;5.47;3.67;;;;;;;-140.79;100.00;63287.88;5044361;28;20396;-52
2021/12/03 00:37:35;;;;;;;5.07;3.67;;;;;;;-140.79;100.00;63287.88;5044449;28;20029;-49
2021/12/03 00:40:00;;;;;;;5.85;3.58;;;;;;;-140.79;100.00;63287.88;5044249;28;20112;-51
2021/12/03 00:42:28;;;;;;;5.90;3.72;;;;;;;-140.79;100.00;63287.88;5043574;28;20025;-49
2021/12/03 00:44:55;;;;;;;4.85;3.50;;;;;;;-140.79;100.00;63287.88;5044170;28;20029;-54
2021/12/03 00:47:21;;;;;;;4.70;3.28;;;;;;;-140.79;100.00;63287.88;5044194;28;20539;-53
2021/12/03 00:49:46;;;;;;;5.53;3.55;;;;;;;-140.79;100.00;63287.88;5043937;28;20171;-53
2021/12/03 00:52:11;;;;;;;5.20;3.47;;;;;;;-140.79;100.00;63287.88;5044252;28;20033;-52
2021/12/03 00:54:37;;;;;;;4.55;3.70;;;;;;;-140.79;100.00;63287.88;5042269;28;20044;-53
2021/12/03 00:57:03;;;;;;;6.18;3.90;;;;;;;-140.79;100.00;63287.88;5042778;28;20031;-52
2021/12/03 00:59:28;;;;;;;4.65;3.35;;;;;;;-140.79;100.00;63287.88;5042405;28;20075;-52
2021/12/03 01:01:54;;;;;;;4.78;3.42;;;;;;;-140.79;100.00;63287.88;5044026;28;20805;-52
2021/12/03 01:04:19;;;;;;;5.47;3.65;;;;;;;-140.79;100.00;63287.88;5043731;28;20216;-53
2021/12/03 01:06:45;;;;;;;4.40;3.17;;;;;;;-140.79;100.00;63287.88;5043826;28;20033;-53
2021/12/03 01:09:10;;;;;;;5.45;3.83;;;;;;;-140.79;100.00;63287.88;5043662;28;20086;-53
2021/12/03 01:11:35;;;;;;;4.78;2.95;;;;;;;-140.79;100.00;63287.88;5043590;28;20044;-53
2021/12/03 01:14:01;;;;;;;4.32;3.38;;;;;;;-140.79;100.00;63287.88;5042231;28;20094;-53
2021/12/03 01:16:29;;;;;;;4.50;3.30;;;;;;;-140.79;100.00;63287.88;5043735;28;20351;-53
2021/12/03 01:18:55;;;;;;;4.50;3.17;;;;;;;-140.79;100.00;63287.88;5042868;28;20120;-54
2021/12/03 01:21:21;;;;;;;4.53;3.28;;;;;;;-140.79;100.00;63287.88;5044096;28;20143;-55
2021/12/03 01:23:46;;;;;;;4.75;3.35;;;;;;;-140.79;100.00;63287.88;5043720;28;20091;-54
2021/12/03 01:26:12;;;;;;;4.70;3.30;;;;;;;-140.79;100.00;63287.88;5043921;28;20033;-53
2021/12/03 01:28:37;;;;;;;4.38;3.50;;;;;;;-140.79;100.00;63287.88;5043360;28;20033;-53
2021/12/03 01:31:03;;;;;;;4.68;3.42;;;;;;;-140.79;100.00;63287.88;5044030;28;20040;-54
2021/12/03 01:33:28;;;;;;;5.35;3.15;;;;;;;-140.79;100.00;63287.88;5043311;28;20561;-53
2021/12/03 01:35:54;;;;;;;5.20;3.20;;;;;;;-140.79;100.00;63287.88;5043301;28;20052;-51
2021/12/03 01:38:19;;;;;;;4.32;3.17;;;;;;;-140.79;100.00;63287.88;5042028;28;20503;-53
2021/12/03 01:40:45;;;;;;;4.78;3.22;;;;;;;-140.79;100.00;63287.88;5042915;28;20483;-54
2021/12/03 01:43:13;;;;;;;4.72;3.00;;;;;;;-140.79;100.00;63287.88;5042961;28;20510;-50
2021/12/03 01:45:39;;;;;;;4.32;3.17;;;;;;;-140.79;100.00;63287.88;5042703;28;20037;-54
2021/12/03 01:48:05;;;;;;;4.47;3.00;;;;;;;-140.79;100.00;63287.88;5042943;28;20510;-52
2021/12/03 01:50:41;;;;;;;4.78;3.35;;;;;;;-140.79;100.00;63287.88;5043369;28;20041;-54
2021/12/03 01:53:07;;;;;;;3.72;2.90;;;;;;;-140.79;100.00;63287.88;5042930;28;20488;-52
2021/12/03 01:55:32;;;;;;;4.45;3.10;;;;;;;-140.79;100.00;63287.88;5043055;28;20063;-53
2021/12/03 01:57:58;;;;;;;4.35;2.90;;;;;;;-140.79;100.00;63287.88;5042085;28;20115;-53
2021/12/03 02:00:24;;;;;;;4.28;3.30;;;;;;;-140.79;100.00;63287.88;5042385;28;20099;-50
2021/12/03 02:02:50;;;;;;;4.05;2.72;;;;;;;-140.79;100.00;63287.88;5042884;28;20040;-54
2021/12/03 02:05:15;;;;;;;3.92;2.80;;;;;;;-140.79;100.00;63287.88;5041387;28;20025;-52
2021/12/03 02:07:41;;;;;;;4.47;2.95;;;;;;;-140.79;100.00;63287.88;5042651;28;20059;-51
2021/12/03 02:10:07;;;;;;;3.88;2.75;;;;;;;-140.79;100.00;63287.88;5041039;28;20040;-52
2021/12/03 02:12:32;;;;;;;4.18;2.83;;;;;;;-140.79;100.00;63287.88;5042960;28;20017;-53
2021/12/03 02:14:58;;;;;;;4.43;2.72;;;;;;;-140.79;100.00;63287.88;5042729;28;20037;-53
2021/12/03 02:17:23;;;;;;;4.70;2.90;;;;;;;-140.79;100.00;63287.88;5042617;28;20033;-53
2021/12/03 02:19:49;;;;;;;4.10;2.90;;;;;;;-140.79;100.00;63287.88;5042341;28;20037;-53
2021/12/03 02:22:14;;;;;;;3.88;2.70;;;;;;;-140.79;100.00;63287.88;5042884;28;20052;-53
2021/12/03 02:24:40;;;;;;;3.25;2.63;;;;;;;-140.79;100.00;63287.88;5042289;28;20092;-53
2021/12/03 02:27:05;;;;;;;4.28;2.70;;;;;;;-140.79;100.00;63287.88;5042704;28;20036;-54
2021/12/03 02:29:31;;;;;;;3.80;2.85;;;;;;;-140.79;100.00;63287.88;5041333;28;20032;-53
2021/12/03 02:31:56;;;;;;;4.53;2.83;;;;;;;-140.79;100.00;63287.88;5042220;28;20621;-53
2021/12/03 02:34:21;;;;;;;4.38;2.83;;;;;;;-140.79;100.00;63287.88;5041880;28;20037;-53
2021/12/03 02:36:47;;;;;;;4.18;2.78;;;;;;;-140.79;100.00;63287.88;5042436;28;20033;-54
2021/12/03 02:39:12;;;;;;;4.10;2.50;;;;;;;-140.79;100.00;63287.88;5042179;28;20566;-52
2021/12/03 02:41:38;;;;;;;3.58;2.50;;;;;;;-140.79;100.00;63287.88;5042612;28;20570;-53
2021/12/03 02:44:04;;;;;;;3.97;2.67;;;;;;;-140.79;100.00;63287.88;5042104;28;20435;-54
2021/12/03 02:46:29;;;;;;;3.15;2.38;;;;;;;-140.79;100.00;63287.88;5042282;28;20496;-54
2021/12/03 02:48:54;;;;;;;4.15;2.53;;;;;;;-140.79;100.00;63287.88;5057528;28;20033;-53
2021/12/03 02:51:20;;;;;;;2.97;2.50;;;;;;;-140.79;100.00;63287.88;5042402;28;20045;-54
2021/12/03 02:53:45;;;;;;;2.63;2.22;;;;;;;-140.79;100.00;63287.88;5042147;28;20078;-49
2021/12/03 02:56:11;;;;;;;3.60;2.30;;;;;;;-140.79;100.00;63287.88;5046686;28;20033;-51
2021/12/03 02:58:36;;;;;;;4.32;2.80;;;;;;;-140.79;100.00;63287.88;5046028;28;20037;-51
2021/12/03 03:01:03;;;;;;;3.90;2.47;;;;;;;-140.79;100.00;63287.88;5046182;28;20465;-52
2021/12/03 03:03:29;;;;;;;3.40;2.40;;;;;;;-140.79;100.00;63287.88;5045559;28;20032;-53
2021/12/03 03:05:55;;;;;;;3.10;2.38;;;;;;;-140.79;100.00;63287.88;5046092;28;20037;-53
2021/12/03 03:08:21;;;;;;;3.75;2.70;;;;;;;-140.79;100.00;63287.88;5045440;28;20036;-51
2021/12/03 03:10:46;;;;;;;3.55;2.60;;;;;;;-140.79;100.00;63287.88;5046152;28;20033;-51
2021/12/03 03:13:12;;;;;;;3.30;2.33;;;;;;;-140.79;100.00;63287.88;5046206;28;20089;-53
2021/12/03 03:15:38;;;;;;;3.72;2.50;;;;;;;-140.79;100.00;63287.88;5046082;28;20423;-53
2021/12/03 03:18:18;;;;;;;3.95;2.53;;;;;;;-140.79;100.00;63287.88;5044358;28;20120;-52
2021/12/03 03:20:44;;;;;;;3.78;2.60;;;;;;;-140.79;100.00;63287.88;5045975;28;20744;-52
2021/12/03 03:23:10;;;;;;;3.95;2.50;;;;;;;-140.79;100.00;63287.88;5044394;28;20035;-53
2021/12/03 03:25:35;;;;;;;3.55;2.30;;;;;;;-140.79;100.00;63287.88;5046301;28;20033;-51
2021/12/03 03:28:01;;;;;;;3.97;2.30;;;;;;;-140.79;100.00;63287.88;5044728;28;20112;-53
2021/12/03 03:30:26;;;;;;;3.58;2.45;;;;;;;-140.79;100.00;63287.88;5042329;28;20021;-51
2021/12/03 03:32:52;;;;;;;3.88;2.38;;;;;;;-140.79;100.00;63287.88;5045809;28;20039;-54
2021/12/03 03:35:17;;;;;;;3.28;2.38;;;;;;;-140.79;100.00;63287.88;5060061;28;20063;-54
2021/12/03 03:37:43;;;;;;;3.30;2.22;;;;;;;-140.79;100.00;63287.88;5045153;28;20024;-53
2021/12/03 03:40:10;;;;;;;3.40;2.30;;;;;;;-140.79;100.00;63287.88;5044478;28;20029;-54
2021/12/03 03:42:35;;;;;;;3.45;2.40;;;;;;;-140.79;100.00;63287.88;5042122;28;20428;-51
2021/12/03 03:45:04;;;;;;;3.05;2.15;;;;;;;-140.79;100.00;63287.88;5043253;28;20141;-53
2021/12/03 03:47:30;;;;;;;3.72;2.00;;;;;;;-140.79;100.00;63287.88;5045458;28;20027;-52
2021/12/03 03:49:55;;;;;;;2.80;1.98;;;;;;;-140.79;100.00;63287.88;5045629;28;20049;-52
2021/12/03 03:52:21;;;;;;;3.20;1.90;;;;;;;-140.79;100.00;63287.88;5045507;28;20029;-53
2021/12/03 03:54:46;;;;;;;2.53;1.90;;;;;;;-140.79;100.00;63287.88;5043255;28;20048;-53
2021/12/03 03:57:12;;;;;;;2.47;1.67;;;;;;;-140.79;100.00;63287.88;5044194;28;20037;-50
2021/12/03 03:59:37;;;;;;;2.83;1.88;;;;;;;-140.79;100.00;63287.88;5044960;28;20025;-51
2021/12/03 04:02:03;;;;;;;2.67;1.88;;;;;;;-140.79;100.00;63287.88;5044731;28;20013;-52
2021/12/03 04:04:28;;;;;;;2.75;1.90;;;;;;;-140.79;100.00;63287.88;5043641;28;20033;-53
2021/12/03 04:06:54;;;;;;;3.25;2.00;;;;;;;-140.79;100.00;63287.88;5041772;28;20071;-51
2021/12/03 04:09:19;;;;;;;3.10;2.00;;;;;;;-140.79;100.00;63287.88;5016563;28;20098;-54
2021/12/03 04:11:45;;;;;;;3.05;2.30;;;;;;;-140.79;100.00;63287.88;5042071;28;20535;-52
2021/12/03 04:14:10;;;;;;;2.90;1.83;;;;;;;-140.79;100.00;63287.88;5043026;28;20498;-54
2021/12/03 04:16:36;;;;;;;2.90;1.80;;;;;;;-140.79;100.00;63287.88;5043829;28;20475;-52
2021/12/03 04:19:01;;;;;;;2.58;1.90;;;;;;;-140.79;100.00;63287.88;5042460;28;20025;-51
2021/12/03 04:21:26;;;;;;;2.92;1.70;;;;;;;-140.79;100.00;63287.88;5045593;28;20021;-53
2021/12/03 04:23:52;;;;;;;3.40;1.85;;;;;;;-140.79;100.00;63287.88;5044200;28;20422;-52
2021/12/03 04:26:18;;;;;;;2.53;1.90;;;;;;;-140.79;100.00;63287.88;5044415;28;20037;-53
2021/12/03 04:28:43;;;;;;;2.38;1.70;;;;;;;-140.79;100.00;63287.88;5044715;28;20115;-55
2021/12/03 04:31:09;;;;;;;2.72;2.03;;;;;;;-140.79;100.00;63287.88;5042598;28;20029;-53
2021/12/03 04:33:34;;;;;;;3.03;2.17;;;;;;;-140.79;100.00;63287.88;5042568;28;20025;-53
2021/12/03 04:35:59;;;;;;;2.10;1.60;;;;;;;-140.79;100.00;63287.88;5043489;28;20434;-51
2021/12/03 04:38:25;;;;;;;2.60;1.67;;;;;;;-140.79;100.00;63287.88;5044506;28;20041;-54
2021/12/03 04:40:50;;;;;;;2.47;1.77;;;;;;;-140.79;100.00;63287.88;5043807;28;20024;-55
2021/12/03 04:43:16;;;;;;;3.42;2.20;;;;;;;-140.79;100.00;63287.88;5042754;28;20419;-52
2021/12/03 04:45:41;;;;;;;2.40;1.83;;;;;;;-140.79;100.00;63287.88;5044640;28;20021;-55
2021/12/03 04:48:07;;;;;;;2.13;1.60;;;;;;;-140.79;100.00;63287.88;5042970;28;20049;-55
2021/12/03 04:50:40;;;;;;;3.30;1.60;;;;;;;-140.79;100.00;63287.88;5042533;28;20495;-56
2021/12/03 04:53:06;;;;;;;2.83;1.63;;;;;;;-140.79;100.00;63287.88;5044059;28;20530;-50
2021/12/03 04:55:31;;;;;;;2.55;1.67;;;;;;;-140.79;100.00;63287.88;5043269;28;20033;-52
2021/12/03 04:57:57;;;;;;;2.22;1.63;;;;;;;-140.79;100.00;63287.88;5044165;28;20028;-54
2021/12/03 05:00:29;;;;;;;2.30;1.50;;;;;;;-140.79;100.00;63287.88;5044276;28;20500;-53
2021/12/03 05:02:55;;;;;;;2.80;1.70;;;;;;;-140.79;100.00;63287.88;5042231;28;20029;-53
2021/12/03 05:05:23;;;;;;;3.13;1.98;;;;;;;-140.79;100.00;63287.88;5009618;28;20020;-53
2021/12/03 05:07:57;;;;;;;2.90;2.05;;;;;;;-140.79;100.00;63287.88;5042645;28;20033;-53
2021/12/03 05:10:24;;;;;;;2.20;1.63;;;;;;;-140.79;100.00;63287.88;5043983;28;20070;-54
2021/12/03 05:12:50;;;;;;;2.83;1.80;;;;;;;-140.79;100.00;63287.88;5044467;28;20039;-51
2021/12/03 05:15:15;;;;;;;2.10;1.50;;;;;;;-140.79;100.00;63287.88;5042802;28;20041;-53
2021/12/03 05:17:41;;;;;;;2.30;1.60;;;;;;;-140.79;100.00;63287.88;5043780;28;20033;-53
2021/12/03 05:20:06;;;;;;;2.75;1.52;;;;;;;-140.79;100.00;63287.88;5043597;28;20021;-54
2021/12/03 05:22:32;;;;;;;2.63;1.70;;;;;;;-140.79;100.00;63287.88;5043924;28;20013;-53
2021/12/03 05:24:57;;;;;;;2.20;1.52;;;;;;;-140.79;100.00;63287.88;5042372;28;20037;-51
2021/12/03 05:27:23;;;;;;;2.42;1.70;;;;;;;-140.79;100.00;63287.88;5042387;28;20036;-53
2021/12/03 05:29:48;;;;;;;3.25;1.60;;;;;;;-140.79;100.00;63287.88;5043150;28;20028;-53
2021/12/03 05:32:14;;;;;;;2.55;1.55;;;;;;;-140.79;100.00;63287.88;5043867;28;20637;-51
2021/12/03 05:34:40;;;;;;;2.47;1.67;;;;;;;-140.79;100.00;63287.88;5042491;28;20024;-53
2021/12/03 05:37:06;;;;;;;1.95;1.40;;;;;;;-140.79;100.00;63287.88;5043211;28;20388;-53
2021/12/03 05:39:33;;;;;;;2.72;1.50;;;;;;;-140.79;100.00;63287.88;5041490;28;20488;-53
2021/12/03 05:41:59;;;;;;;2.85;1.70;;;;;;;-140.79;100.00;63287.88;5040349;28;20527;-54
2021/12/03 05:44:24;;;;;;;1.80;1.45;;;;;;;-140.79;100.00;63287.88;5039200;28;20106;-52
2021/12/03 05:46:49;;;;;;;2.25;1.55;;;;;;;-140.79;100.00;63287.88;5039894;28;20041;-52
2021/12/03 05:49:15;;;;;;;3.28;1.60;;;;;;;-140.79;100.00;63287.88;5040908;28;20028;-53
2021/12/03 05:51:40;;;;;;;2.28;1.60;;;;;;;-140.79;100.00;63287.88;5042172;28;20099;-54
2021/12/03 05:54:06;;;;;;;2.13;1.48;;;;;;;-140.79;100.00;63287.88;5039978;28;20052;-52
2021/12/03 05:56:33;;;;;;;2.17;1.30;;;;;;;-140.79;100.00;63287.88;5039964;28;20053;-53
2021/12/03 05:58:58;;;;;;;2.28;1.48;;;;;;;-140.79;100.00;63287.88;5039715;28;20439;-53
2021/12/03 06:01:23;;;;;;;2.00;1.27;;;;;;;-140.79;100.00;63287.88;5040037;28;20487;-51
2021/12/03 06:03:49;;;;;;;2.08;1.30;;;;;;;-140.79;100.00;63287.88;5040761;28;20431;-54
2021/12/03 06:06:14;;;;;;;1.48;1.25;;;;;;;-140.79;100.00;63287.88;5038437;28;20419;-51
2021/12/03 06:08:40;;;;;;;2.05;1.20;;;;;;;-140.79;100.00;63287.88;5033952;28;20025;-53
2021/12/03 06:11:06;;;;;;;1.80;1.27;;;;;;;-140.79;100.00;63287.88;5042492;28;20427;-52
2021/12/03 06:13:31;;;;;;;2.13;1.55;;;;;;;-140.79;100.00;63287.88;5043375;28;20033;-53
2021/12/03 06:15:57;;;;;;;2.42;1.50;;;;;;;-140.79;100.00;63287.88;5043415;28;20040;-54
2021/12/03 06:18:22;;;;;;;2.63;1.65;;;;;;;-140.79;100.00;63287.88;5042708;28;20029;-52
2021/12/03 06:20:47;;;;;;;2.25;1.63;;;;;;;-140.79;100.00;63287.88;5043041;28;20017;-49
2021/12/03 06:23:13;;;;;;;3.92;1.52;;;;;;;-140.79;100.00;63287.88;5043448;28;20070;-53
2021/12/03 06:25:39;;;;;;;2.13;1.33;;;;;;;-140.79;100.00;63287.88;5040099;28;20502;-57
2021/12/03 06:28:05;;;;;;;1.63;1.25;;;;;;;-140.79;100.00;63287.88;5038933;28;20547;-55
2021/12/03 06:30:30;;;;;;;2.85;1.42;;;;;;;-140.79;100.00;63287.88;5040119;28;20723;-53
2021/12/03 06:32:56;;;;;;;2.88;1.63;;;;;;;-140.79;100.00;63287.88;5042094;28;20006;-54
2021/12/03 06:35:21;;;;;;;2.67;1.20;;;;;;;-140.79;100.00;63287.88;5039021;28;20035;-52
2021/12/03 06:37:47;;;;;;;2.78;1.42;;;;;;;-140.79;100.00;63287.88;5041553;28;20789;-53
2021/12/03 06:40:14;;;;;;;2.33;1.27;;;;;;;-140.79;100.00;63287.88;5042189;28;20491;-55
2021/12/03 06:42:40;;;;;;;2.75;1.48;;;;;;;-140.79;100.00;63287.88;5042977;28;20415;-52
2021/12/03 06:45:06;;;;;;;2.35;1.20;;;;;;;-140.79;100.00;63287.88;5041743;28;20033;-49
2021/12/03 06:47:32;;;;;;;2.65;1.40;;;;;;;-140.79;100.00;63287.88;5042466;28;20434;-54
2021/12/03 06:49:57;;;;;;;5.22;1.50;;;;;;;-140.79;100.00;63287.88;5042678;28;20041;-53
2021/12/03 06:52:23;;;;;;;6.50;1.60;;;;;;;-140.79;100.00;63287.88;5044244;28;20104;-54
2021/12/03 06:54:55;;;;;;;2.60;1.35;;;;;;;-140.79;100.00;63287.88;5045964;28;20071;-51
2021/12/03 06:57:21;;;;;;;6.28;1.63;;;;;;;-140.79;100.00;63287.88;5044111;28;20384;-54
2021/12/03 06:59:46;;;;;;;5.93;1.52;;;;;;;-140.79;100.00;63287.88;5043486;28;20065;-54
2021/12/03 07:02:13;;;;;;;2.00;1.20;;;;;;;-140.79;100.00;63287.88;5043792;28;20541;-50
2021/12/03 07:04:40;;;;;;;2.75;1.42;;;;;;;-140.79;100.00;63287.88;5042074;28;20028;-55
2021/12/03 07:07:05;;;;;;;3.03;1.50;;;;;;;-140.79;100.00;63287.88;5042384;28;20107;-54
2021/12/03 07:09:30;;;;;;;2.45;1.48;;;;;;;-140.79;100.00;63287.88;5042539;28;20032;-53
2021/12/03 07:11:56;;;;;;;2.85;1.27;;;;;;;-140.79;100.00;63287.88;5042830;28;20033;-53
2021/12/03 07:14:21;;;;;;;4.20;1.50;;;;;;;-140.79;100.00;63287.88;5042513;28;20083;-54
2021/12/03 07:16:47;;;;;;;2.67;1.40;;;;;;;-140.79;100.00;63287.88;5042577;28;20029;-52
2021/12/03 07:19:12;;;;;;;2.22;1.23;;;;;;;-140.79;100.00;63287.88;5042615;28;20025;-55
2021/12/03 07:21:38;;;;;;;2.20;1.20;;;;;;;-140.79;100.00;63287.88;5042811;28;20028;-54
2021/12/03 07:24:03;;;;;;;2.10;1.45;;;;;;;-140.79;100.00;63287.88;5058322;28;20030;-54
2021/12/03 07:26:29;;;;;;;1.90;1.17;;;;;;;-140.79;100.00;63287.88;5042838;28;20499;-55
2021/12/03 07:28:54;;;;;;;2.33;1.25;;;;;;;-140.79;100.00;63287.88;5042321;28;20504;-55
2021/12/03 07:31:20;;;;;;;1.83;1.40;;;;;;;-140.79;100.00;63287.88;5041885;28;20652;-54
2021/12/03 07:33:46;;;;;;;3.22;1.40;;;;;;;-140.79;100.00;63287.88;5042103;28;20063;-56
2021/12/03 07:36:12;;;;;;;3.10;1.38;;;;;;;-140.79;100.00;63287.88;5041900;28;20053;-54
2021/12/03 07:38:37;;;;;;;4.13;1.27;;;;;;;-140.79;100.00;63287.88;5042533;28;20032;-53
2021/12/03 07:41:03;;;;;;;2.80;1.20;;;;;;;-140.79;100.00;63287.88;5044595;28;21009;-51
2021/12/03 07:43:29;;;;;;;1.73;0.93;;;;;;;-140.79;100.00;63287.88;5045110;28;20025;-51
2021/12/03 07:45:54;;;;;;;3.40;1.20;;;;;;;-140.79;100.00;63287.88;5043400;28;21407;-53
2021/12/03 07:48:21;;;;;;;1.77;1.17;;;;;;;-140.79;100.00;63287.88;5040570;28;20119;-53
2021/12/03 07:50:47;;;;;;;2.72;1.17;;;;;;;-140.79;100.00;63287.88;5040925;28;20080;-58
2021/12/03 07:53:15;;;;;;;2.25;1.10;;;;;;;-140.79;100.00;63287.88;5044822;28;20071;-56
2021/12/03 07:55:40;;;;;;;2.63;1.30;;;;;;;-140.79;100.00;63287.88;5045728;28;20036;-55
2021/12/03 07:58:06;;;;;;;2.95;1.27;;;;;;;-140.79;100.00;63287.88;5045883;28;20039;-55
2021/12/03 08:00:31;;;;;;;1.85;1.02;;;;;;;-140.79;100.00;63287.88;5044391;28;20719;-56
2021/12/03 08:02:56;;;;;;;2.22;1.05;;;;;;;-140.79;100.00;63287.88;5043199;28;20033;-53
2021/12/03 08:05:22;;;;;;;2.03;1.20;;;;;;;-140.79;100.00;63287.88;5042327;28;20056;-52
2021/12/03 08:07:49;;;;;;;3.00;1.45;;;;;;;-140.79;100.00;63287.88;5043140;28;20044;-52
2021/12/03 08:10:15;;;;;;;2.75;1.20;;;;;;;-140.79;100.00;63287.88;5044543;28;20033;-54
2021/12/03 08:12:42;;;;;;;2.63;1.10;;;;;;;-140.79;100.00;63287.88;5044659;28;20098;-53
2021/12/03 08:15:07;;;;;;;2.70;1.40;;;;;;;-140.79;100.00;63287.88;5044325;28;20032;-53
2021/12/03 08:17:33;;;;;;;1.98;1.10;;;;;;;-140.79;100.00;63287.88;5043598;28;20037;-53
2021/12/03 08:19:58;;;;;;;2.47;1.30;;;;;;;-140.79;100.00;63287.88;5042892;28;20027;-52
2021/12/03 08:22:24;;;;;;;2.17;1.30;;;;;;;-140.79;100.00;63287.88;5043311;28;20550;-53
2021/12/03 08:24:49;;;;;;;1.70;1.00;;;;;;;-140.79;100.00;63287.88;5043376;28;20029;-54
2021/12/03 08:27:15;;;;;;;2.55;1.30;;;;;;;-140.79;100.00;63287.88;5043479;28;20033;-53
2021/12/03 08:29:40;;;;;;;2.78;1.35;;;;;;;-140.79;100.00;63287.88;5041557;28;20029;-54
2021/12/03 08:32:06;;;;;;;2.17;1.23;;;;;;;-140.79;100.00;63287.88;5042604;28;20032;-52
2021/12/03 08:34:31;;;;;;;1.95;1.10;;;;;;;-140.79;100.00;63287.88;5041547;28;20469;-52
2021/12/03 08:36:57;;;;;;;2.65;1.27;;;;;;;-140.79;100.00;63287.88;5042111;28;20040;-51
2021/12/03 08:39:22;;;;;;;2.42;1.10;;;;;;;-140.79;100.00;63287.88;5041591;28;20025;-53
2021/12/03 08:41:48;;;;;;;2.33;1.20;;;;;;;-140.79;100.00;63287.88;5043100;28;20710;-52
2021/12/03 08:44:14;;;;;;;3.05;1.23;;;;;;;-140.79;100.00;63287.88;5045207;28;20033;-53
2021/12/03 08:46:39;;;;;;;2.33;1.10;;;;;;;-140.79;100.00;63287.88;5044449;28;20032;-55
2021/12/03 08:49:52;;;;;;;3.05;1.50;;;;;;;-140.79;100.00;63287.88;5044763;28;20032;-53
2021/12/03 08:52:08;;;;;;;2.25;1.10;;;;;;;-140.79;100.00;63287.88;5034114;28;20102;-54
2021/12/03 08:54:52;;;;;;;3.25;1.58;;;;;;;-140.79;100.00;63287.88;5043951;28;20048;-55
2021/12/03 08:57:30;;;;;;;2.90;1.20;;;;;;;-140.79;100.00;63287.88;5044623;28;20025;-54
2021/12/03 08:59:57;;;;;;;2.17;1.02;;;;;;;-140.79;100.00;63287.88;5041159;28;20033;-54
2021/12/03 09:02:23;;;;;;;2.08;1.20;;;;;;;-140.79;100.00;63287.88;5041700;28;20055;-55
2021/12/03 09:04:48;;;;;;;2.88;1.25;;;;;;;-140.79;100.00;63287.88;5044087;28;20408;-52
2021/12/03 09:07:14;;;;;;;2.83;1.20;;;;;;;-140.79;100.00;63287.88;5044626;28;20040;-54
2021/12/03 09:09:40;;;;;;;2.30;1.23;;;;;;;-140.79;100.00;63287.88;5043436;28;20029;-56
2021/12/03 09:12:06;;;;;;;2.67;1.17;;;;;;;-140.79;100.00;63287.88;5043847;28;20037;-53
2021/12/03 09:14:47;;;;;;;1.80;1.15;;;;;;;-140.79;100.00;63287.88;5042418;28;20503;-57
2021/12/03 09:22:52;;;;;;;3.22;1.17;;;;;;;-140.79;100.00;63287.88;5044162;28;20094;-54
2021/12/03 09:25:22;;;;;;;1.60;1.00;;;;;;;-140.79;100.00;63287.88;5043551;28;20462;-55
2021/12/03 09:27:48;;;;;;;3.80;1.20;;;;;;;-140.79;100.00;63287.88;5043457;28;20491;-52
2021/12/03 09:30:15;;;;;;;2.28;1.20;;;;;;;-140.79;100.00;63287.88;5044076;28;20120;-55
2021/12/03 09:32:45;;;;;;;2.35;1.10;;;;;;;-140.79;100.00;63287.88;5043986;28;20055;-54
2021/12/03 09:35:11;;;;;;;;;;;;;;;-140.79;100.00;63287.88;5044603;28;20033;-57
2021/12/03 09:37:36;;;;;;;2.47;1.20;;;;;;;-140.79;100.00;63287.88;5043855;28;19944;-57
2021/12/03 09:40:06;;;;;;;1.98;1.10;;;;;;;-140.79;100.00;63287.88;5043766;28;20033;-59
2021/12/03 09:42:35;;;;;;;2.30;1.23;;;;;;;-140.79;100.00;63287.88;5043725;28;20411;-56
2021/12/03 09:45:00;;;;;;;3.00;1.20;;;;;;;-140.79;100.00;63287.88;5043176;28;20033;-57
2021/12/03 09:47:26;;;;;;;2.33;1.30;;;;;;;-140.79;100.00;63287.88;5042628;28;20033;-53
2021/12/03 09:49:55;;;;;;;2.60;1.40;;;;;;;-140.79;100.00;63287.88;5025633;28;20455;-52
2021/12/03 09:55:10;;;;;;;2.53;1.20;;;;;;;-140.79;100.00;63287.88;5043112;28;20060;-53
2021/12/03 09:57:43;;;;;;;2.22;1.10;;;;;;;-140.79;100.00;63287.88;5042351;28;20029;-50
2021/12/03 10:14:11;;;;;;;2.70;1.10;;;;;;;-140.79;100.00;63287.88;5043408;28;20101;-55
2021/12/03 10:17:09;;;;;;;5.53;1.50;;;;;;;-140.79;100.00;63287.88;5042655;28;20075;-53
2021/12/03 10:19:35;;;;;;;2.75;1.27;;;;;;;-140.79;100.00;63287.88;5040613;28;20392;-55
2021/12/03 10:25:09;;;;;;;4.20;1.45;;;;;;;-140.79;100.00;63287.88;5025981;28;20063;-54
2021/12/03 10:40:38;;;;;;;2.85;1.00;;;;;;;-140.79;100.00;63287.88;5042534;28;20021;-53
2021/12/03 10:51:48;;;;;;;1.80;1.05;;;;;;;-140.79;100.00;63287.88;5042255;28;20154;-55
2021/12/03 10:57:52;;;;;;;1.95;1.15;;;;;;;-140.79;100.00;63287.88;5041291;28;20037;-53
2021/12/03 11:49:19;;;;;;;2.05;1.15;;;;;;;-140.79;100.00;63287.88;5044522;28;20149;-54
2021/12/03 12:44:18;;;;;;;4.80;0.98;;;;;;;-140.79;100.00;63287.88;5040925;28;20039;-55
2021/12/03 14:57:15;;;;;;;3.15;0.70;;;;;;;-140.79;100.00;63287.88;5013725;28;20064;-52
2021/12/03 14:59:51;;;;;;;2.72;1.10;;;;;;;-140.79;100.00;63287.88;5008305;28;20042;-52
2021/12/03 15:07:43;;;;;;;2.58;0.80;;;;;;;-140.79;100.00;63287.88;5016240;28;20129;-52
2021/12/03 15:10:16;;;;;;;2.47;0.85;;;;;;;-140.79;100.00;63287.88;5016979;28;20459;-54
2021/12/03 15:13:15;;;;;;;1.45;0.77;;;;;;;-140.79;100.00;63287.88;5014959;28;20037;-52
2021/12/03 15:24:29;;;;;;;2.80;1.08;;;;;;;-140.79;100.00;63287.88;5013753;28;20096;-53
2021/12/03 15:34:52;;;;;;;2.15;0.82;;;;;;;-140.79;100.00;63287.88;5015626;28;20487;-53
2021/12/03 16:03:29;;;;;;;2.22;0.75;;;;;;;-140.79;100.00;63287.88;5042207;28;20125;-52
2021/12/03 16:03:58;;;;;;;2.08;0.65;;;;;;;-140.79;100.00;63287.88;5045111;28;20119;-53
2021/12/03 16:06:29;;;;;;;1.33;0.90;;;;;;;-140.79;100.00;63287.88;5041278;28;20029;-54
2021/12/03 16:08:59;;;;;;;2.05;0.60;;;;;;;-140.79;100.00;63287.88;5041399;28;20045;-52
2021/12/03 16:46:28;;;;;;;1.45;0.68;;;;;;;-140.79;100.00;63287.88;5026759;28;20075;-53
2021/12/03 16:53:49;;;;;;;1.23;0.70;;;;;;;-140.79;100.00;63287.88;5041043;28;20060;-53
2021/12/03 16:56:18;;;;;;;7.28;0.88;;;;;;;-140.79;100.00;63287.88;5040894;28;20043;-54
2021/12/03 16:58:44;;;;;;;3.42;0.70;;;;;;;-140.79;100.00;63287.88;5047957;28;20066;-52
2021/12/03 17:01:19;;;;;;;1.55;0.75;;;;;;;-140.79;100.00;63287.88;5051913;28;20036;-53
2021/12/03 17:09:13;;;;;;;1.58;0.63;;;;;;;-140.79;100.00;63287.88;5016810;28;20045;-52
2021/12/03 17:56:44;;;;;;;1.73;0.60;;;;;;;-140.79;100.00;63287.88;5037448;28;20084;-53
2021/12/03 18:02:05;;;;;;;2.42;0.60;;;;;;;-140.79;100.00;63287.88;5043008;28;20079;-51
2021/12/03 18:09:45;;;;;;;1.45;0.63;;;;;;;-140.79;100.00;63287.88;5043441;28;20048;-56
2021/12/03 18:45:05;;;;;;;1.35;0.70;;;;;;;-140.79;100.00;63287.88;5044760;28;20047;-58
2021/12/03 18:55:57;;;;;;;1.90;0.95;;;;;;;-140.79;100.00;63287.88;5033476;28;20103;-55